createdAt,value
2023-02-14T00:02:42.067Z,-2.40
2023-02-14T00:05:29.877Z,-2.50
2023-02-14T00:08:17.502Z,-2.50
2023-02-14T00:11:05.622Z,-2.50
2023-02-14T00:14:06.914Z,-2.60
2023-02-14T00:16:55.452Z,-2.50
2023-02-14T00:19:42.852Z,-2.50
2023-02-14T00:22:31.463Z,-2.60
2023-02-14T00:25:19.530Z,-2.60
2023-02-14T00:28:07.233Z,-2.60
2023-02-14T00:30:54.626Z,-2.60
2023-02-14T00:33:43.229Z,-2.60
2023-02-14T00:36:30.761Z,-2.60
2023-02-14T00:39:19.040Z,-2.70
2023-02-14T00:42:06.630Z,-2.70
2023-02-14T00:44:54.047Z,-2.80
2023-02-14T00:47:41.591Z,-2.80
2023-02-14T00:50:32.382Z,-2.80
2023-02-14T00:53:21.726Z,-2.40
2023-02-14T00:56:09.882Z,-2.60
2023-02-14T00:58:57.807Z,-2.80
2023-02-14T01:01:45.410Z,-2.80
2023-02-14T01:04:44.145Z,-2.90
2023-02-14T01:07:33.847Z,-2.80
2023-02-14T01:10:21.446Z,-2.90
2023-02-14T01:13:09.411Z,-2.90
2023-02-14T01:15:57.531Z,-2.90
2023-02-14T01:18:46.328Z,-2.90
2023-02-14T01:21:34.633Z,-2.80
2023-02-14T01:24:23.180Z,-2.90
2023-02-14T01:27:09.946Z,-2.90
2023-02-14T01:29:56.715Z,-3.00
2023-02-14T01:32:43.900Z,-3.10
2023-02-14T01:35:30.422Z,-3.10
2023-02-14T01:38:17.514Z,-3.10
2023-02-14T01:41:05.929Z,-3.10
2023-02-14T01:43:54.830Z,-3.10
2023-02-14T01:46:43.481Z,-3.10
2023-02-14T01:49:33.388Z,-3.20
2023-02-14T01:52:23.287Z,-3.10
2023-02-14T01:55:15.222Z,-3.10
2023-02-14T01:58:06.139Z,-3.10
2023-02-14T02:00:59.186Z,-3.10
2023-02-14T02:03:49.967Z,-3.10
2023-02-14T02:06:41.089Z,-3.20
2023-02-14T02:09:35.141Z,-3.20
2023-02-14T02:12:22.525Z,-3.20
2023-02-14T02:15:11.420Z,-3.20
2023-02-14T02:18:06.458Z,-3.30
2023-02-14T02:21:30.257Z,-3.30
2023-02-14T02:24:28.272Z,-3.30
2023-02-14T02:27:30.270Z,-3.30
2023-02-14T02:30:45.993Z,-3.30
2023-02-14T02:34:05.374Z,-3.40
2023-02-14T02:37:07.419Z,-3.40
2023-02-14T02:40:06.163Z,-3.40
2023-02-14T02:43:02.694Z,-3.40
2023-02-14T02:46:11.571Z,-3.40
2023-02-14T02:49:07.030Z,-3.40
2023-02-14T02:52:14.284Z,-3.50
2023-02-14T02:55:08.031Z,-3.50
2023-02-14T02:57:55.252Z,-3.50
2023-02-14T03:00:42.649Z,-3.50
2023-02-14T03:03:48.408Z,-3.50
2023-02-14T03:06:35.320Z,-3.50
2023-02-14T03:10:02.222Z,-3.50
2023-02-14T03:13:14.134Z,-3.50
2023-02-14T03:16:37.536Z,-3.60
2023-02-14T03:20:03.362Z,-3.60
2023-02-14T03:22:55.286Z,-3.50
2023-02-14T03:25:47.868Z,-3.60
2023-02-14T03:28:43.917Z,-3.60
2023-02-14T03:31:35.771Z,-3.50
2023-02-14T03:34:30.003Z,-3.60
2023-02-14T03:37:22.182Z,-3.60
2023-02-14T03:40:12.253Z,-3.60
2023-02-14T03:43:03.212Z,-3.70
2023-02-14T03:45:56.238Z,-3.60
2023-02-14T03:48:45.523Z,-3.70
2023-02-14T03:51:34.447Z,-3.70
2023-02-14T03:54:23.064Z,-3.70
2023-02-14T03:57:19.120Z,-3.80
2023-02-14T04:00:07.512Z,-3.80
2023-02-14T04:03:00.392Z,-3.70
2023-02-14T04:05:52.544Z,-3.80
2023-02-14T04:08:40.313Z,-3.80
2023-02-14T04:11:27.631Z,-3.80
2023-02-14T04:14:14.455Z,-3.80
2023-02-14T04:17:18.847Z,-3.90
2023-02-14T04:20:08.561Z,-3.80
2023-02-14T04:22:55.927Z,-3.90
2023-02-14T04:25:43.600Z,-3.90
2023-02-14T04:28:30.852Z,-3.90
2023-02-14T04:31:18.388Z,-3.90
2023-02-14T04:34:05.095Z,-3.90
2023-02-14T04:36:53.077Z,-4.00
2023-02-14T04:39:40.225Z,-4.00
2023-02-14T04:42:27.732Z,-4.00
2023-02-14T04:45:14.703Z,-4.00
2023-02-14T04:48:01.802Z,-4.10
2023-02-14T04:50:53.549Z,-4.00
2023-02-14T04:53:43.260Z,-4.00
2023-02-14T04:56:29.912Z,-4.10
2023-02-14T04:59:16.846Z,-4.20
2023-02-14T05:02:03.481Z,-4.10
2023-02-14T05:04:50.656Z,-4.10
2023-02-14T05:07:37.694Z,-4.10
2023-02-14T05:10:26.265Z,-4.20
2023-02-14T05:13:13.667Z,-4.10
2023-02-14T05:16:11.977Z,-4.20
2023-02-14T05:18:59.172Z,-4.20
2023-02-14T05:21:47.153Z,-4.20
2023-02-14T05:24:34.717Z,-4.10
2023-02-14T05:27:23.319Z,-4.20
2023-02-14T05:30:11.687Z,-4.20
2023-02-14T05:32:58.881Z,-4.20
2023-02-14T05:35:45.751Z,-4.20
2023-02-14T05:38:36.211Z,-4.30
2023-02-14T05:41:22.732Z,-4.20
2023-02-14T05:44:11.109Z,-4.30
2023-02-14T05:46:58.011Z,-4.20
2023-02-14T05:49:44.773Z,-4.20
2023-02-14T05:52:31.929Z,-4.20
2023-02-14T05:55:18.830Z,-4.20
2023-02-14T05:58:05.813Z,-4.20
2023-02-14T06:00:54.594Z,-4.30
2023-02-14T06:03:41.723Z,-4.30
2023-02-14T06:06:28.529Z,-4.30
2023-02-14T06:09:15.762Z,-4.30
2023-02-14T06:12:02.932Z,-4.30
2023-02-14T06:14:50.026Z,-4.30
2023-02-14T06:17:38.238Z,-4.30
2023-02-14T06:20:26.281Z,-4.40
2023-02-14T06:23:13.514Z,-4.40
2023-02-14T06:26:00.793Z,-4.40
2023-02-14T06:28:47.821Z,-4.40
2023-02-14T06:31:34.639Z,-4.40
2023-02-14T06:34:23.188Z,-4.40
2023-02-14T06:37:10.115Z,-4.40
2023-02-14T06:49:15.016Z,-4.30
2023-02-14T06:52:20.074Z,-4.20
2023-02-14T06:55:08.785Z,-4.20
2023-02-14T06:57:56.660Z,-4.20
2023-02-14T07:00:44.133Z,-4.20
2023-02-14T07:03:41.717Z,-4.20
2023-02-14T07:06:29.351Z,-4.20
2023-02-14T07:09:20.223Z,-4.10
2023-02-14T07:12:13.931Z,-4.10
2023-02-14T07:18:54.507Z,-4.10
2023-02-14T07:21:44.436Z,-4.10
2023-02-14T07:24:43.745Z,-4.00
2023-02-14T07:27:35.880Z,-4.00
2023-02-14T07:30:38.216Z,-3.90
2023-02-14T07:33:27.760Z,-3.80
2023-02-14T07:36:15.217Z,-3.80
2023-02-14T07:39:03.142Z,-3.70
2023-02-14T07:42:04.644Z,-3.60
2023-02-14T07:44:54.139Z,-3.50
2023-02-14T07:48:10.859Z,-3.40
2023-02-14T07:54:42.917Z,-3.20
2023-02-14T07:57:31.865Z,-3.10
2023-02-14T08:00:20.186Z,-3.00
2023-02-14T08:03:07.903Z,-2.50
2023-02-14T08:05:58.215Z,-1.30
2023-02-14T08:08:46.505Z,-0.70
2023-02-14T08:11:51.117Z,0.10
2023-02-14T08:14:39.394Z,0.60
2023-02-14T08:17:26.460Z,1.50
2023-02-14T08:20:14.212Z,2.30
2023-02-14T08:23:01.186Z,3.00
2023-02-14T08:25:49.350Z,3.70
2023-02-14T08:28:36.188Z,4.30
2023-02-14T08:31:35.619Z,4.60
2023-02-14T08:34:23.488Z,4.70
2023-02-14T08:37:10.620Z,5.20
2023-02-14T08:39:57.766Z,5.00
2023-02-14T08:42:44.556Z,5.00
2023-02-14T08:45:32.185Z,5.50
2023-02-14T08:48:21.302Z,6.40
2023-02-14T08:51:09.349Z,6.30
2023-02-14T08:53:56.230Z,6.10
2023-02-14T08:56:43.254Z,6.50
2023-02-14T08:59:30.606Z,7.50
2023-02-14T09:02:17.518Z,9.00
2023-02-14T09:05:08.209Z,8.30
2023-02-14T09:07:57.258Z,8.10
2023-02-14T09:10:44.134Z,7.30
2023-02-14T09:13:31.100Z,7.10
2023-02-14T09:16:19.316Z,8.20
2023-02-14T09:19:06.365Z,9.70
2023-02-14T09:21:54.711Z,9.00
2023-02-14T09:24:42.458Z,8.70
2023-02-14T09:27:29.264Z,8.90
2023-02-14T09:30:17.426Z,9.40
2023-02-14T09:33:05.475Z,9.00
2023-02-14T09:36:13.097Z,9.60
2023-02-14T09:39:01.438Z,9.20
2023-02-14T09:42:15.049Z,8.70
2023-02-14T09:45:05.931Z,8.10
2023-02-14T09:47:57.387Z,8.10
2023-02-14T09:50:48.565Z,8.40
2023-02-14T09:53:39.653Z,8.60
2023-02-14T09:56:45.970Z,8.90
2023-02-14T09:59:43.969Z,8.80
2023-02-14T10:02:43.453Z,9.20
2023-02-14T10:05:34.948Z,9.70
2023-02-14T10:08:36.946Z,9.50
2023-02-14T10:11:25.859Z,9.40
2023-02-14T10:14:17.598Z,9.40
2023-02-14T10:17:10.939Z,9.60
2023-02-14T10:20:01.197Z,9.80
2023-02-14T10:22:58.423Z,10.30
2023-02-14T10:25:50.019Z,10.60
2023-02-14T10:28:41.638Z,10.80
2023-02-14T10:31:39.378Z,11.20
2023-02-14T10:34:33.940Z,11.40
2023-02-14T10:37:30.432Z,11.30
2023-02-14T10:40:34.530Z,11.50
2023-02-14T10:43:34.041Z,11.90
2023-02-14T10:46:37.450Z,12.10
2023-02-14T10:49:36.296Z,12.30
2023-02-14T10:52:27.960Z,12.30
2023-02-14T10:55:32.024Z,12.50
2023-02-14T10:58:23.686Z,12.70
2023-02-14T11:01:15.041Z,13.30
2023-02-14T11:04:06.642Z,13.70
2023-02-14T11:06:54.140Z,13.60
2023-02-14T11:09:40.917Z,13.60
2023-02-14T11:12:39.309Z,13.60
2023-02-14T11:15:31.967Z,13.90
2023-02-14T11:18:23.937Z,14.00
2023-02-14T11:21:14.858Z,13.80
2023-02-14T11:24:01.584Z,14.50
2023-02-14T11:26:50.118Z,14.80
2023-02-14T11:29:45.019Z,14.70
2023-02-14T11:32:37.627Z,14.80
2023-02-14T11:35:33.906Z,14.80
2023-02-14T11:38:30.633Z,14.80
2023-02-14T11:41:18.266Z,14.90
2023-02-14T11:44:22.280Z,15.10
2023-02-14T11:47:23.409Z,15.70
2023-02-14T11:50:24.777Z,15.80
2023-02-14T11:53:13.607Z,16.10
2023-02-14T11:56:02.098Z,16.20
2023-02-14T11:58:54.274Z,16.10
2023-02-14T12:01:41.471Z,16.10
2023-02-14T12:04:45.602Z,15.90
2023-02-14T12:07:35.742Z,16.30
2023-02-14T12:10:26.518Z,16.40
2023-02-14T12:13:26.266Z,16.00
2023-02-14T12:16:26.841Z,16.30
2023-02-14T12:19:19.288Z,16.50
2023-02-14T12:22:07.559Z,17.30
2023-02-14T12:25:03.338Z,16.50
2023-02-14T12:27:55.044Z,16.30
2023-02-14T12:30:43.626Z,17.20
2023-02-14T12:33:30.283Z,17.10
2023-02-14T12:36:29.480Z,16.50
2023-02-14T12:39:23.655Z,16.30
2023-02-14T12:42:34.238Z,15.80
2023-02-14T12:45:27.186Z,16.50
2023-02-14T12:48:26.374Z,16.70
2023-02-14T12:51:19.724Z,16.70
2023-02-14T12:54:26.572Z,16.60
2023-02-14T12:57:28.428Z,16.50
2023-02-14T13:00:31.821Z,16.10
2023-02-14T13:03:38.357Z,16.00
2023-02-14T13:06:30.983Z,15.90
2023-02-14T13:09:31.471Z,15.90
2023-02-14T13:12:32.870Z,16.10
2023-02-14T13:15:29.655Z,16.10
2023-02-14T13:18:25.619Z,16.30
2023-02-14T13:21:18.103Z,16.30
2023-02-14T13:24:16.308Z,16.00
2023-02-14T13:27:07.116Z,16.00
2023-02-14T13:29:59.072Z,16.10
2023-02-14T13:32:48.276Z,15.90
2023-02-14T13:35:36.588Z,15.90
2023-02-14T13:38:27.332Z,15.80
2023-02-14T13:41:16.310Z,15.80
2023-02-14T13:44:05.547Z,15.60
2023-02-14T13:46:53.473Z,15.50
2023-02-14T13:49:47.714Z,15.50
2023-02-14T13:52:46.544Z,15.50
2023-02-14T13:55:37.402Z,15.40
2023-02-14T13:58:25.910Z,15.20
2023-02-14T14:01:31.840Z,15.20
2023-02-14T14:04:39.269Z,15.10
2023-02-14T14:07:30.917Z,14.90
2023-02-14T14:10:46.060Z,14.70
2023-02-14T14:14:02.465Z,14.70
2023-02-14T14:16:59.050Z,14.70
2023-02-14T14:19:47.340Z,14.60
2023-02-14T14:22:47.263Z,14.40
2023-02-14T14:25:37.433Z,14.20
2023-02-14T14:28:28.979Z,14.00
2023-02-14T14:31:16.232Z,13.90
2023-02-14T14:34:03.562Z,13.70
2023-02-14T14:36:50.658Z,13.40
2023-02-14T14:39:39.915Z,13.20
2023-02-14T14:42:30.198Z,13.10
2023-02-14T14:45:25.242Z,13.00
2023-02-14T14:48:18.058Z,12.90
2023-02-14T14:51:07.252Z,12.70
2023-02-14T14:53:58.540Z,12.70
2023-02-14T14:56:50.947Z,12.50
2023-02-14T14:59:40.062Z,12.40
2023-02-14T15:02:31.457Z,12.40
2023-02-14T15:05:26.700Z,12.30
2023-02-14T15:08:32.128Z,12.00
2023-02-14T15:11:36.106Z,11.90
2023-02-14T15:14:26.036Z,11.70
2023-02-14T15:17:19.449Z,11.50
2023-02-14T15:20:11.426Z,11.40
2023-02-14T15:22:58.251Z,11.30
2023-02-14T15:25:47.181Z,11.30
2023-02-14T15:28:35.848Z,11.20
2023-02-14T15:31:23.168Z,11.00
2023-02-14T15:34:12.914Z,10.90
2023-02-14T15:37:06.811Z,10.80
2023-02-14T15:39:56.870Z,10.60
2023-02-14T15:42:46.266Z,10.50
2023-02-14T15:45:33.585Z,10.30
2023-02-14T15:48:24.887Z,10.10
2023-02-14T15:51:18.841Z,10.00
2023-02-14T15:54:09.619Z,9.80
2023-02-14T15:56:58.816Z,9.70
2023-02-14T15:59:45.682Z,9.40
2023-02-14T16:02:37.918Z,9.20
2023-02-14T16:05:28.935Z,8.70
2023-02-14T16:08:29.585Z,8.50
2023-02-14T16:11:31.145Z,8.20
2023-02-14T16:14:32.186Z,8.00
2023-02-14T16:17:35.908Z,7.90
2023-02-14T16:20:27.983Z,7.50
2023-02-14T16:23:26.476Z,7.40
2023-02-14T16:26:14.104Z,7.20
2023-02-14T16:29:04.464Z,7.10
2023-02-14T16:35:02.092Z,6.70
2023-02-14T16:37:51.760Z,6.50
2023-02-14T16:40:38.510Z,6.40
2023-02-14T16:43:25.585Z,6.20
2023-02-14T16:46:16.373Z,5.90
2023-02-14T16:49:04.291Z,5.90
2023-02-14T16:51:51.081Z,5.70
2023-02-14T16:54:38.597Z,5.50
2023-02-14T16:57:29.277Z,5.30
2023-02-14T17:00:17.859Z,5.10
2023-02-14T17:03:11.737Z,5.10
2023-02-14T17:06:04.322Z,4.90
2023-02-14T17:08:55.072Z,4.70
2023-02-14T17:11:47.595Z,4.50
2023-02-14T17:14:39.989Z,4.40
2023-02-14T17:17:28.817Z,4.30
2023-02-14T17:20:22.464Z,4.20
2023-02-14T17:23:10.548Z,4.00
2023-02-14T17:25:58.268Z,4.10
2023-02-14T17:28:46.487Z,3.90
2023-02-14T17:31:35.513Z,3.70
2023-02-14T17:34:23.560Z,3.50
2023-02-14T17:37:12.270Z,3.50
2023-02-14T17:39:59.798Z,3.40
2023-02-14T17:42:47.753Z,3.20
2023-02-14T17:45:35.946Z,3.20
2023-02-14T17:48:23.986Z,3.00
2023-02-14T17:51:11.783Z,3.00
2023-02-14T17:54:01.115Z,2.90
2023-02-14T17:56:49.325Z,2.70
2023-02-14T17:59:37.905Z,2.70
2023-02-14T18:02:29.039Z,2.60
2023-02-14T18:05:16.998Z,2.50
2023-02-14T18:08:04.700Z,2.40
2023-02-14T18:10:53.826Z,2.30
2023-02-14T18:13:41.595Z,2.20
2023-02-14T18:16:30.221Z,2.10
2023-02-14T18:19:18.463Z,2.10
2023-02-14T18:22:06.017Z,1.90
2023-02-14T18:24:53.422Z,1.80
2023-02-14T18:27:42.271Z,1.80
2023-02-14T18:30:31.037Z,1.70
2023-02-14T18:33:18.907Z,1.70
2023-02-14T18:36:10.197Z,1.60
2023-02-14T18:38:58.094Z,1.60
2023-02-14T18:41:48.838Z,1.40
2023-02-14T18:44:37.444Z,1.50
2023-02-14T18:47:24.480Z,1.30
2023-02-14T18:50:12.073Z,1.20
2023-02-14T18:52:59.305Z,1.20
2023-02-14T18:55:46.401Z,1.20
2023-02-14T18:58:33.604Z,1.00
2023-02-14T19:01:25.225Z,0.90
2023-02-14T19:04:13.540Z,0.80
2023-02-14T19:07:00.886Z,0.80
2023-02-14T19:09:47.700Z,0.70
2023-02-14T19:12:34.911Z,0.70
2023-02-14T19:15:22.196Z,0.60
2023-02-14T19:18:10.692Z,0.60
2023-02-14T19:20:57.743Z,0.60
2023-02-14T19:23:44.963Z,0.50
2023-02-14T19:26:35.025Z,0.50
2023-02-14T19:29:22.696Z,0.30
2023-02-14T19:32:10.442Z,0.30
2023-02-14T19:35:01.143Z,0.30
2023-02-14T19:37:48.935Z,0.20
2023-02-14T19:40:35.999Z,0.20
2023-02-14T19:43:23.287Z,0.20
2023-02-14T19:46:10.828Z,0.10
2023-02-14T19:48:58.498Z,0.00
2023-02-14T19:51:49.167Z,-0.10
2023-02-14T19:54:39.710Z,0.00
2023-02-14T19:57:26.698Z,-0.10
2023-02-14T20:00:16.165Z,-0.20
2023-02-14T20:03:06.254Z,-0.20
2023-02-14T20:05:53.638Z,-0.20
2023-02-14T20:08:42.123Z,-0.20
2023-02-14T20:11:33.142Z,-0.20
2023-02-14T20:14:22.563Z,-0.30
2023-02-14T20:17:09.421Z,-0.30
2023-02-14T20:19:56.836Z,-0.10
2023-02-14T20:22:43.948Z,-0.40
2023-02-14T20:25:32.817Z,-0.40
2023-02-14T20:28:19.868Z,-0.50
2023-02-14T20:31:09.002Z,-0.50
2023-02-14T20:33:57.000Z,-0.60
2023-02-14T20:36:45.046Z,-0.60
2023-02-14T20:39:34.275Z,-0.60
2023-02-14T20:42:23.695Z,-0.70
2023-02-14T20:45:10.732Z,-0.70
2023-02-14T20:47:58.795Z,-0.70
2023-02-14T20:50:45.779Z,-0.70
2023-02-14T20:53:33.277Z,-0.80
2023-02-14T20:56:21.193Z,-0.70
2023-02-14T20:59:11.587Z,-0.80
2023-02-14T21:02:00.108Z,-0.80
2023-02-14T21:04:47.569Z,-0.80
2023-02-14T21:07:34.798Z,-0.90
2023-02-14T21:10:22.452Z,-0.90
2023-02-14T21:13:09.834Z,-1.00
2023-02-14T21:16:03.266Z,-1.00
2023-02-14T21:18:55.101Z,-1.00
2023-02-14T21:21:42.438Z,-1.00
2023-02-14T21:24:30.501Z,-1.10
2023-02-14T21:27:17.612Z,-1.00
2023-02-14T21:30:05.380Z,-0.80
2023-02-14T21:32:53.611Z,-1.10
2023-02-14T21:35:40.782Z,-1.10
2023-02-14T21:38:29.472Z,-1.20
2023-02-14T21:41:20.985Z,-1.20
2023-02-14T21:44:08.225Z,-1.10
2023-02-14T21:46:55.203Z,-0.90
2023-02-14T21:50:01.441Z,-1.10
2023-02-14T21:52:48.479Z,-1.30
2023-02-14T21:55:35.509Z,-1.30
2023-02-14T21:58:24.390Z,-1.40
2023-02-14T22:01:19.415Z,-1.40
2023-02-14T22:04:09.435Z,-1.60
2023-02-14T22:06:58.299Z,-1.60
2023-02-14T22:09:45.234Z,-1.60
2023-02-14T22:12:32.335Z,-1.60
2023-02-14T22:15:19.334Z,-1.60
2023-02-14T22:18:07.393Z,-1.60
2023-02-14T22:20:55.099Z,-1.60
2023-02-14T22:23:44.529Z,-1.70
2023-02-14T22:26:34.748Z,-1.70
2023-02-14T22:29:21.930Z,-1.80
2023-02-14T22:32:09.774Z,-1.90
2023-02-14T22:34:57.239Z,-1.80
2023-02-14T22:37:44.197Z,-1.80
2023-02-14T22:40:32.732Z,-1.80
2023-02-14T22:43:20.195Z,-1.80
2023-02-14T22:46:09.310Z,-1.60
2023-02-14T22:48:57.831Z,-1.80
2023-02-14T22:51:45.512Z,-1.90
2023-02-14T22:54:32.810Z,-1.80
2023-02-14T22:57:21.584Z,-1.80
2023-02-14T23:00:11.755Z,-1.60
2023-02-14T23:02:59.432Z,-1.90
2023-02-14T23:05:46.198Z,-1.90
2023-02-14T23:08:33.492Z,-1.80
2023-02-14T23:11:23.303Z,-2.00
2023-02-14T23:14:31.023Z,-2.00
2023-02-14T23:17:35.737Z,-2.10
2023-02-14T23:20:42.295Z,-2.10
2023-02-14T23:23:34.570Z,-2.00
2023-02-14T23:26:21.766Z,-2.00
2023-02-14T23:29:09.251Z,-2.20
2023-02-14T23:31:58.108Z,-2.20
2023-02-14T23:34:46.624Z,-1.90
2023-02-14T23:37:34.112Z,-1.70
2023-02-14T23:40:21.799Z,-2.00
2023-02-14T23:43:09.397Z,-2.20
2023-02-14T23:45:56.827Z,-2.00
2023-02-14T23:48:46.240Z,-2.20
2023-02-14T23:51:34.028Z,-2.20
2023-02-14T23:54:22.454Z,-2.30
2023-02-14T23:57:10.543Z,-2.30
2023-02-14T23:59:57.556Z,-2.40
